sensor_id;sensor_type;location;lat;lon;timestamp;P1;durP1;ratioP1;P2;durP2;ratioP2
51949;SDS011;37974;53.218;6.640;2022-08-01T00:01:45;7.85;;;3.55;;
51949;SDS011;37974;53.218;6.640;2022-08-01T00:04:11;6.00;;;2.80;;
51949;SDS011;37974;53.218;6.640;2022-08-01T00:06:37;6.65;;;3.20;;
51949;SDS011;37974;53.218;6.640;2022-08-01T00:09:02;6.25;;;3.38;;
51949;SDS011;37974;53.218;6.640;2022-08-01T00:11:28;10.77;;;3.50;;
51949;SDS011;37974;53.218;6.640;2022-08-01T00:13:54;6.90;;;3.08;;
51949;SDS011;37974;53.218;6.640;2022-08-01T00:16:20;9.07;;;3.00;;
51949;SDS011;37974;53.218;6.640;2022-08-01T00:18:48;13.27;;;3.50;;
51949;SDS011;37974;53.218;6.640;2022-08-01T00:21:15;11.90;;;3.17;;
51949;SDS011;37974;53.218;6.640;2022-08-01T00:23:41;11.23;;;3.45;;
51949;SDS011;37974;53.218;6.640;2022-08-01T00:26:06;8.65;;;3.65;;
51949;SDS011;37974;53.218;6.640;2022-08-01T00:28:32;8.57;;;3.00;;
51949;SDS011;37974;53.218;6.640;2022-08-01T00:30:58;5.90;;;2.60;;
51949;SDS011;37974;53.218;6.640;2022-08-01T00:33:24;7.18;;;3.00;;
51949;SDS011;37974;53.218;6.640;2022-08-01T00:35:50;5.72;;;2.90;;
51949;SDS011;37974;53.218;6.640;2022-08-01T00:38:16;11.95;;;3.47;;
51949;SDS011;37974;53.218;6.640;2022-08-01T00:40:41;8.48;;;3.50;;
51949;SDS011;37974;53.218;6.640;2022-08-01T00:43:07;8.15;;;3.55;;
51949;SDS011;37974;53.218;6.640;2022-08-01T00:45:33;7.47;;;3.00;;
51949;SDS011;37974;53.218;6.640;2022-08-01T00:47:58;6.43;;;3.17;;
51949;SDS011;37974;53.218;6.640;2022-08-01T00:50:24;10.50;;;3.13;;
51949;SDS011;37974;53.218;6.640;2022-08-01T00:52:50;11.30;;;3.65;;
51949;SDS011;37974;53.218;6.640;2022-08-01T00:55:16;7.75;;;3.78;;
51949;SDS011;37974;53.218;6.640;2022-08-01T00:57:43;8.20;;;3.50;;
51949;SDS011;37974;53.218;6.640;2022-08-01T01:00:09;12.00;;;3.97;;
51949;SDS011;37974;53.218;6.640;2022-08-01T01:02:35;10.23;;;3.42;;
51949;SDS011;37974;53.218;6.640;2022-08-01T01:05:01;7.05;;;3.30;;
51949;SDS011;37974;53.218;6.640;2022-08-01T01:07:32;17.05;;;3.65;;
51949;SDS011;37974;53.218;6.640;2022-08-01T01:10:03;9.52;;;3.38;;
51949;SDS011;37974;53.218;6.640;2022-08-01T01:12:38;13.55;;;3.67;;
51949;SDS011;37974;53.218;6.640;2022-08-01T01:20:11;8.43;;;2.30;;
51949;SDS011;37974;53.218;6.640;2022-08-01T01:22:44;10.23;;;2.40;;
51949;SDS011;37974;53.218;6.640;2022-08-01T01:28:17;7.97;;;2.10;;
51949;SDS011;37974;53.218;6.640;2022-08-01T01:30:55;6.85;;;2.13;;
51949;SDS011;37974;53.218;6.640;2022-08-01T01:33:22;9.73;;;2.40;;
51949;SDS011;37974;53.218;6.640;2022-08-01T01:35:52;8.93;;;2.10;;
51949;SDS011;37974;53.218;6.640;2022-08-01T01:38:22;10.38;;;2.15;;
51949;SDS011;37974;53.218;6.640;2022-08-01T01:41:00;11.10;;;2.17;;
51949;SDS011;37974;53.218;6.640;2022-08-01T01:43:27;5.32;;;1.92;;
51949;SDS011;37974;53.218;6.640;2022-08-01T01:45:55;7.55;;;2.25;;
51949;SDS011;37974;53.218;6.640;2022-08-01T01:48:22;7.75;;;1.70;;
51949;SDS011;37974;53.218;6.640;2022-08-01T01:50:50;11.07;;;2.10;;
51949;SDS011;37974;53.218;6.640;2022-08-01T01:53:18;17.15;;;1.90;;
51949;SDS011;37974;53.218;6.640;2022-08-01T01:55:46;15.32;;;2.10;;
51949;SDS011;37974;53.218;6.640;2022-08-01T01:58:15;6.93;;;1.58;;
51949;SDS011;37974;53.218;6.640;2022-08-01T02:00:42;9.30;;;1.52;;
51949;SDS011;37974;53.218;6.640;2022-08-01T02:03:11;9.45;;;1.30;;
51949;SDS011;37974;53.218;6.640;2022-08-01T02:05:39;11.05;;;2.00;;
51949;SDS011;37974;53.218;6.640;2022-08-01T02:08:07;12.57;;;1.80;;
51949;SDS011;37974;53.218;6.640;2022-08-01T02:10:35;12.68;;;1.67;;
51949;SDS011;37974;53.218;6.640;2022-08-01T02:13:02;13.18;;;1.52;;
51949;SDS011;37974;53.218;6.640;2022-08-01T02:15:30;7.03;;;1.58;;
51949;SDS011;37974;53.218;6.640;2022-08-01T02:17:58;13.57;;;1.77;;
51949;SDS011;37974;53.218;6.640;2022-08-01T02:20:27;10.90;;;1.77;;
51949;SDS011;37974;53.218;6.640;2022-08-01T02:22:58;10.57;;;1.80;;
51949;SDS011;37974;53.218;6.640;2022-08-01T02:25:33;11.60;;;1.65;;
51949;SDS011;37974;53.218;6.640;2022-08-01T02:28:06;13.18;;;1.92;;
51949;SDS011;37974;53.218;6.640;2022-08-01T02:30:35;13.30;;;1.60;;
51949;SDS011;37974;53.218;6.640;2022-08-01T02:33:06;13.80;;;2.15;;
51949;SDS011;37974;53.218;6.640;2022-08-01T02:38:04;8.68;;;1.70;;
51949;SDS011;37974;53.218;6.640;2022-08-01T02:40:31;13.55;;;2.53;;
51949;SDS011;37974;53.218;6.640;2022-08-01T02:42:59;12.82;;;2.00;;
51949;SDS011;37974;53.218;6.640;2022-08-01T02:45:27;12.55;;;2.20;;
51949;SDS011;37974;53.218;6.640;2022-08-01T02:47:58;11.77;;;2.38;;
51949;SDS011;37974;53.218;6.640;2022-08-01T02:50:30;17.00;;;2.42;;
51949;SDS011;37974;53.218;6.640;2022-08-01T02:52:57;17.27;;;3.40;;
51949;SDS011;37974;53.218;6.640;2022-08-01T02:55:24;22.83;;;3.08;;
51949;SDS011;37974;53.218;6.640;2022-08-01T02:57:52;21.45;;;3.20;;
51949;SDS011;37974;53.218;6.640;2022-08-01T03:00:19;17.17;;;3.05;;
51949;SDS011;37974;53.218;6.640;2022-08-01T03:02:45;13.43;;;3.20;;
51949;SDS011;37974;53.218;6.640;2022-08-01T03:05:15;11.68;;;2.60;;
51949;SDS011;37974;53.218;6.640;2022-08-01T03:07:43;20.98;;;3.40;;
51949;SDS011;37974;53.218;6.640;2022-08-01T03:10:10;12.70;;;2.78;;
51949;SDS011;37974;53.218;6.640;2022-08-01T03:12:36;13.98;;;2.92;;
51949;SDS011;37974;53.218;6.640;2022-08-01T03:15:03;13.82;;;3.22;;
51949;SDS011;37974;53.218;6.640;2022-08-01T03:17:31;15.05;;;3.28;;
51949;SDS011;37974;53.218;6.640;2022-08-01T03:19:58;14.43;;;3.22;;
51949;SDS011;37974;53.218;6.640;2022-08-01T03:22:27;16.73;;;3.75;;
51949;SDS011;37974;53.218;6.640;2022-08-01T03:24:54;14.57;;;2.92;;
51949;SDS011;37974;53.218;6.640;2022-08-01T03:27:22;11.43;;;2.63;;
51949;SDS011;37974;53.218;6.640;2022-08-01T03:29:49;14.57;;;2.92;;
51949;SDS011;37974;53.218;6.640;2022-08-01T03:32:17;11.27;;;2.58;;
51949;SDS011;37974;53.218;6.640;2022-08-01T03:34:44;17.27;;;3.10;;
51949;SDS011;37974;53.218;6.640;2022-08-01T03:37:14;12.43;;;2.90;;
51949;SDS011;37974;53.218;6.640;2022-08-01T03:39:53;11.63;;;3.05;;
51949;SDS011;37974;53.218;6.640;2022-08-01T03:42:20;16.00;;;3.42;;
51949;SDS011;37974;53.218;6.640;2022-08-01T03:44:54;15.05;;;2.83;;
51949;SDS011;37974;53.218;6.640;2022-08-01T03:47:24;16.80;;;2.72;;
51949;SDS011;37974;53.218;6.640;2022-08-01T03:49:54;15.40;;;3.83;;
51949;SDS011;37974;53.218;6.640;2022-08-01T03:52:22;17.63;;;3.10;;
51949;SDS011;37974;53.218;6.640;2022-08-01T03:54:51;14.57;;;2.58;;
51949;SDS011;37974;53.218;6.640;2022-08-01T03:57:19;15.73;;;2.75;;
51949;SDS011;37974;53.218;6.640;2022-08-01T03:59:45;14.88;;;2.70;;
51949;SDS011;37974;53.218;6.640;2022-08-01T04:02:12;11.80;;;3.38;;
51949;SDS011;37974;53.218;6.640;2022-08-01T04:04:38;13.40;;;2.70;;
51949;SDS011;37974;53.218;6.640;2022-08-01T04:07:04;15.82;;;3.40;;
51949;SDS011;37974;53.218;6.640;2022-08-01T04:09:32;15.77;;;3.03;;
51949;SDS011;37974;53.218;6.640;2022-08-01T04:11:58;17.48;;;3.13;;
51949;SDS011;37974;53.218;6.640;2022-08-01T04:14:26;14.27;;;3.42;;
51949;SDS011;37974;53.218;6.640;2022-08-01T04:16:53;11.35;;;2.80;;
51949;SDS011;37974;53.218;6.640;2022-08-01T04:19:19;18.63;;;2.97;;
51949;SDS011;37974;53.218;6.640;2022-08-01T04:21:45;16.98;;;3.08;;
51949;SDS011;37974;53.218;6.640;2022-08-01T04:24:14;16.98;;;2.75;;
51949;SDS011;37974;53.218;6.640;2022-08-01T04:26:43;15.48;;;3.38;;
51949;SDS011;37974;53.218;6.640;2022-08-01T04:29:11;21.65;;;3.38;;
51949;SDS011;37974;53.218;6.640;2022-08-01T04:31:39;16.08;;;2.50;;
51949;SDS011;37974;53.218;6.640;2022-08-01T04:34:09;14.10;;;2.92;;
51949;SDS011;37974;53.218;6.640;2022-08-01T04:36:38;14.60;;;2.53;;
51949;SDS011;37974;53.218;6.640;2022-08-01T04:39:06;25.75;;;3.03;;
51949;SDS011;37974;53.218;6.640;2022-08-01T04:41:34;18.00;;;3.33;;
51949;SDS011;37974;53.218;6.640;2022-08-01T04:44:02;24.40;;;3.03;;
51949;SDS011;37974;53.218;6.640;2022-08-01T04:46:29;16.90;;;2.50;;
51949;SDS011;37974;53.218;6.640;2022-08-01T04:48:56;17.23;;;3.65;;
51949;SDS011;37974;53.218;6.640;2022-08-01T04:51:22;16.63;;;3.45;;
51949;SDS011;37974;53.218;6.640;2022-08-01T04:53:48;25.30;;;2.97;;
51949;SDS011;37974;53.218;6.640;2022-08-01T04:56:16;21.38;;;2.95;;
51949;SDS011;37974;53.218;6.640;2022-08-01T04:58:43;23.52;;;3.10;;
51949;SDS011;37974;53.218;6.640;2022-08-01T05:01:09;24.65;;;3.17;;
51949;SDS011;37974;53.218;6.640;2022-08-01T05:03:35;20.52;;;3.80;;
51949;SDS011;37974;53.218;6.640;2022-08-01T05:06:01;17.75;;;3.00;;
51949;SDS011;37974;53.218;6.640;2022-08-01T05:08:27;19.27;;;3.05;;
51949;SDS011;37974;53.218;6.640;2022-08-01T05:10:53;18.48;;;3.15;;
51949;SDS011;37974;53.218;6.640;2022-08-01T05:13:19;25.70;;;3.97;;
51949;SDS011;37974;53.218;6.640;2022-08-01T05:15:45;23.23;;;3.45;;
51949;SDS011;37974;53.218;6.640;2022-08-01T05:18:10;16.70;;;3.30;;
51949;SDS011;37974;53.218;6.640;2022-08-01T05:20:36;19.45;;;2.97;;
51949;SDS011;37974;53.218;6.640;2022-08-01T05:23:03;22.33;;;2.80;;
51949;SDS011;37974;53.218;6.640;2022-08-01T05:25:29;21.52;;;3.88;;
51949;SDS011;37974;53.218;6.640;2022-08-01T05:27:55;28.35;;;3.72;;
51949;SDS011;37974;53.218;6.640;2022-08-01T05:30:20;21.02;;;3.15;;
51949;SDS011;37974;53.218;6.640;2022-08-01T05:32:46;23.40;;;3.42;;
51949;SDS011;37974;53.218;6.640;2022-08-01T05:35:12;21.17;;;3.85;;
51949;SDS011;37974;53.218;6.640;2022-08-01T05:37:37;27.25;;;3.42;;
51949;SDS011;37974;53.218;6.640;2022-08-01T05:40:03;24.27;;;3.40;;
51949;SDS011;37974;53.218;6.640;2022-08-01T05:42:30;20.52;;;3.13;;
51949;SDS011;37974;53.218;6.640;2022-08-01T05:44:56;23.90;;;3.40;;
51949;SDS011;37974;53.218;6.640;2022-08-01T05:47:21;23.60;;;3.78;;
51949;SDS011;37974;53.218;6.640;2022-08-01T05:49:47;25.25;;;3.58;;
51949;SDS011;37974;53.218;6.640;2022-08-01T05:52:13;23.52;;;3.22;;
51949;SDS011;37974;53.218;6.640;2022-08-01T05:54:39;22.00;;;3.00;;
51949;SDS011;37974;53.218;6.640;2022-08-01T05:57:05;22.75;;;4.22;;
51949;SDS011;37974;53.218;6.640;2022-08-01T05:59:31;24.95;;;4.13;;
51949;SDS011;37974;53.218;6.640;2022-08-01T06:01:56;21.80;;;3.75;;
51949;SDS011;37974;53.218;6.640;2022-08-01T06:04:22;20.27;;;2.95;;
51949;SDS011;37974;53.218;6.640;2022-08-01T06:06:48;26.20;;;3.60;;
51949;SDS011;37974;53.218;6.640;2022-08-01T06:09:14;25.85;;;3.20;;
51949;SDS011;37974;53.218;6.640;2022-08-01T06:11:40;22.63;;;3.40;;
51949;SDS011;37974;53.218;6.640;2022-08-01T06:14:05;22.95;;;3.13;;
51949;SDS011;37974;53.218;6.640;2022-08-01T06:16:31;18.48;;;3.08;;
51949;SDS011;37974;53.218;6.640;2022-08-01T06:18:57;22.67;;;3.08;;
51949;SDS011;37974;53.218;6.640;2022-08-01T06:21:23;19.80;;;3.33;;
51949;SDS011;37974;53.218;6.640;2022-08-01T06:23:48;19.85;;;2.58;;
51949;SDS011;37974;53.218;6.640;2022-08-01T06:26:17;23.27;;;3.15;;
51949;SDS011;37974;53.218;6.640;2022-08-01T06:28:43;19.65;;;3.08;;
51949;SDS011;37974;53.218;6.640;2022-08-01T06:31:09;25.33;;;3.40;;
51949;SDS011;37974;53.218;6.640;2022-08-01T06:33:37;22.10;;;3.42;;
51949;SDS011;37974;53.218;6.640;2022-08-01T06:36:03;22.58;;;3.75;;
51949;SDS011;37974;53.218;6.640;2022-08-01T06:38:29;26.92;;;3.42;;
51949;SDS011;37974;53.218;6.640;2022-08-01T06:40:55;19.50;;;2.60;;
51949;SDS011;37974;53.218;6.640;2022-08-01T06:43:20;16.92;;;2.60;;
51949;SDS011;37974;53.218;6.640;2022-08-01T06:45:46;21.25;;;3.33;;
51949;SDS011;37974;53.218;6.640;2022-08-01T06:48:12;21.35;;;3.28;;
51949;SDS011;37974;53.218;6.640;2022-08-01T06:50:38;22.63;;;2.88;;
51949;SDS011;37974;53.218;6.640;2022-08-01T06:53:04;25.00;;;3.13;;
51949;SDS011;37974;53.218;6.640;2022-08-01T06:55:30;19.17;;;3.22;;
51949;SDS011;37974;53.218;6.640;2022-08-01T06:57:56;19.38;;;3.05;;
51949;SDS011;37974;53.218;6.640;2022-08-01T07:00:22;18.67;;;3.58;;
51949;SDS011;37974;53.218;6.640;2022-08-01T07:02:50;21.30;;;3.47;;
51949;SDS011;37974;53.218;6.640;2022-08-01T07:05:16;21.67;;;2.92;;
51949;SDS011;37974;53.218;6.640;2022-08-01T07:07:42;24.73;;;3.15;;
51949;SDS011;37974;53.218;6.640;2022-08-01T07:10:08;21.33;;;3.25;;
51949;SDS011;37974;53.218;6.640;2022-08-01T07:12:35;20.63;;;3.47;;
51949;SDS011;37974;53.218;6.640;2022-08-01T07:15:04;18.50;;;2.58;;
51949;SDS011;37974;53.218;6.640;2022-08-01T07:17:30;24.30;;;3.30;;
51949;SDS011;37974;53.218;6.640;2022-08-01T07:19:56;14.27;;;2.53;;
51949;SDS011;37974;53.218;6.640;2022-08-01T07:22:22;14.05;;;2.65;;
51949;SDS011;37974;53.218;6.640;2022-08-01T07:24:48;17.15;;;3.25;;
51949;SDS011;37974;53.218;6.640;2022-08-01T07:27:13;17.30;;;2.78;;
51949;SDS011;37974;53.218;6.640;2022-08-01T07:29:39;12.85;;;2.30;;
51949;SDS011;37974;53.218;6.640;2022-08-01T07:32:05;12.55;;;2.47;;
51949;SDS011;37974;53.218;6.640;2022-08-01T07:34:31;20.52;;;2.80;;
51949;SDS011;37974;53.218;6.640;2022-08-01T07:36:57;18.48;;;2.40;;
51949;SDS011;37974;53.218;6.640;2022-08-01T07:39:22;20.02;;;3.08;;
51949;SDS011;37974;53.218;6.640;2022-08-01T07:41:48;21.85;;;2.67;;
51949;SDS011;37974;53.218;6.640;2022-08-01T07:44:14;16.95;;;2.78;;
51949;SDS011;37974;53.218;6.640;2022-08-01T07:46:39;18.45;;;2.70;;
51949;SDS011;37974;53.218;6.640;2022-08-01T07:49:05;21.17;;;3.25;;
51949;SDS011;37974;53.218;6.640;2022-08-01T07:51:31;17.63;;;2.58;;
51949;SDS011;37974;53.218;6.640;2022-08-01T07:53:56;25.95;;;2.55;;
51949;SDS011;37974;53.218;6.640;2022-08-01T07:56:22;20.13;;;2.60;;
51949;SDS011;37974;53.218;6.640;2022-08-01T07:58:49;19.92;;;2.67;;
51949;SDS011;37974;53.218;6.640;2022-08-01T08:01:15;14.90;;;2.10;;
51949;SDS011;37974;53.218;6.640;2022-08-01T08:03:41;15.52;;;2.75;;
51949;SDS011;37974;53.218;6.640;2022-08-01T08:06:07;16.25;;;2.08;;
51949;SDS011;37974;53.218;6.640;2022-08-01T08:08:32;21.83;;;3.22;;
51949;SDS011;37974;53.218;6.640;2022-08-01T08:10:59;19.00;;;2.50;;
51949;SDS011;37974;53.218;6.640;2022-08-01T08:13:25;17.23;;;2.22;;
51949;SDS011;37974;53.218;6.640;2022-08-01T08:15:51;13.45;;;2.50;;
51949;SDS011;37974;53.218;6.640;2022-08-01T08:18:17;14.13;;;2.03;;
51949;SDS011;37974;53.218;6.640;2022-08-01T08:20:43;14.88;;;2.45;;
51949;SDS011;37974;53.218;6.640;2022-08-01T08:23:10;16.95;;;2.42;;
51949;SDS011;37974;53.218;6.640;2022-08-01T08:25:54;14.88;;;2.42;;
51949;SDS011;37974;53.218;6.640;2022-08-01T08:28:20;13.30;;;2.30;;
51949;SDS011;37974;53.218;6.640;2022-08-01T08:30:45;16.73;;;2.33;;
51949;SDS011;37974;53.218;6.640;2022-08-01T08:33:11;13.98;;;2.40;;
51949;SDS011;37974;53.218;6.640;2022-08-01T08:35:38;15.77;;;2.22;;
51949;SDS011;37974;53.218;6.640;2022-08-01T08:38:05;16.98;;;2.05;;
51949;SDS011;37974;53.218;6.640;2022-08-01T08:40:32;14.55;;;1.95;;
51949;SDS011;37974;53.218;6.640;2022-08-01T08:43:00;14.48;;;2.13;;
51949;SDS011;37974;53.218;6.640;2022-08-01T08:45:29;17.25;;;1.85;;
51949;SDS011;37974;53.218;6.640;2022-08-01T08:47:56;12.70;;;1.95;;
51949;SDS011;37974;53.218;6.640;2022-08-01T08:50:23;23.05;;;3.50;;
51949;SDS011;37974;53.218;6.640;2022-08-01T08:52:50;19.00;;;2.15;;
51949;SDS011;37974;53.218;6.640;2022-08-01T08:55:20;18.50;;;2.03;;
51949;SDS011;37974;53.218;6.640;2022-08-01T08:57:47;13.40;;;2.00;;
51949;SDS011;37974;53.218;6.640;2022-08-01T09:00:13;15.57;;;2.03;;
51949;SDS011;37974;53.218;6.640;2022-08-01T09:02:42;16.30;;;2.13;;
51949;SDS011;37974;53.218;6.640;2022-08-01T09:05:09;11.10;;;2.08;;
51949;SDS011;37974;53.218;6.640;2022-08-01T09:07:36;12.70;;;2.15;;
51949;SDS011;37974;53.218;6.640;2022-08-01T09:10:02;14.98;;;1.92;;
51949;SDS011;37974;53.218;6.640;2022-08-01T09:12:28;14.02;;;1.95;;
51949;SDS011;37974;53.218;6.640;2022-08-01T09:14:54;12.75;;;2.03;;
51949;SDS011;37974;53.218;6.640;2022-08-01T09:17:20;18.10;;;2.20;;
51949;SDS011;37974;53.218;6.640;2022-08-01T09:19:47;14.85;;;2.20;;
51949;SDS011;37974;53.218;6.640;2022-08-01T09:22:17;14.45;;;1.88;;
51949;SDS011;37974;53.218;6.640;2022-08-01T09:24:57;13.70;;;1.70;;
51949;SDS011;37974;53.218;6.640;2022-08-01T09:27:25;13.98;;;2.20;;
51949;SDS011;37974;53.218;6.640;2022-08-01T09:29:52;12.05;;;2.38;;
51949;SDS011;37974;53.218;6.640;2022-08-01T09:32:19;15.35;;;1.95;;
51949;SDS011;37974;53.218;6.640;2022-08-01T09:34:46;13.27;;;1.77;;
51949;SDS011;37974;53.218;6.640;2022-08-01T09:37:11;11.10;;;1.70;;
51949;SDS011;37974;53.218;6.640;2022-08-01T09:39:39;15.90;;;1.83;;
51949;SDS011;37974;53.218;6.640;2022-08-01T09:42:25;9.63;;;1.60;;
51949;SDS011;37974;53.218;6.640;2022-08-01T09:44:51;6.72;;;1.27;;
51949;SDS011;37974;53.218;6.640;2022-08-01T09:47:18;17.00;;;1.20;;
51949;SDS011;37974;53.218;6.640;2022-08-01T09:49:46;11.27;;;1.40;;
51949;SDS011;37974;53.218;6.640;2022-08-01T09:52:20;11.48;;;1.45;;
51949;SDS011;37974;53.218;6.640;2022-08-01T09:54:58;16.52;;;2.45;;
51949;SDS011;37974;53.218;6.640;2022-08-01T09:57:26;9.55;;;1.48;;
51949;SDS011;37974;53.218;6.640;2022-08-01T09:59:53;9.60;;;1.52;;
51949;SDS011;37974;53.218;6.640;2022-08-01T10:02:28;10.80;;;1.38;;
51949;SDS011;37974;53.218;6.640;2022-08-01T10:05:03;10.48;;;1.70;;
51949;SDS011;37974;53.218;6.640;2022-08-01T10:07:31;8.80;;;1.25;;
51949;SDS011;37974;53.218;6.640;2022-08-01T10:10:12;10.18;;;1.33;;
51949;SDS011;37974;53.218;6.640;2022-08-01T10:12:39;13.55;;;2.03;;
51949;SDS011;37974;53.218;6.640;2022-08-01T10:15:06;10.48;;;1.40;;
51949;SDS011;37974;53.218;6.640;2022-08-01T10:17:33;11.38;;;1.58;;
51949;SDS011;37974;53.218;6.640;2022-08-01T10:19:59;9.77;;;1.25;;
51949;SDS011;37974;53.218;6.640;2022-08-01T10:22:28;14.60;;;1.83;;
51949;SDS011;37974;53.218;6.640;2022-08-01T10:24:56;9.05;;;1.52;;
51949;SDS011;37974;53.218;6.640;2022-08-01T10:27:28;10.57;;;1.45;;
51949;SDS011;37974;53.218;6.640;2022-08-01T10:29:59;12.23;;;1.63;;
51949;SDS011;37974;53.218;6.640;2022-08-01T10:32:30;10.02;;;1.50;;
51949;SDS011;37974;53.218;6.640;2022-08-01T10:34:56;8.48;;;1.20;;
51949;SDS011;37974;53.218;6.640;2022-08-01T10:37:23;9.32;;;1.20;;
51949;SDS011;37974;53.218;6.640;2022-08-01T10:39:50;8.93;;;1.45;;
51949;SDS011;37974;53.218;6.640;2022-08-01T10:42:18;9.25;;;1.25;;
51949;SDS011;37974;53.218;6.640;2022-08-01T10:44:44;14.98;;;2.03;;
51949;SDS011;37974;53.218;6.640;2022-08-01T10:47:14;11.85;;;1.48;;
51949;SDS011;37974;53.218;6.640;2022-08-01T10:49:58;8.80;;;1.88;;
51949;SDS011;37974;53.218;6.640;2022-08-01T10:52:29;10.95;;;1.20;;
51949;SDS011;37974;53.218;6.640;2022-08-01T10:55:06;10.63;;;1.70;;
51949;SDS011;37974;53.218;6.640;2022-08-01T10:57:46;13.15;;;1.80;;
51949;SDS011;37974;53.218;6.640;2022-08-01T11:00:16;7.07;;;1.48;;
51949;SDS011;37974;53.218;6.640;2022-08-01T11:02:44;9.13;;;1.13;;
51949;SDS011;37974;53.218;6.640;2022-08-01T11:05:25;15.00;;;1.38;;
51949;SDS011;37974;53.218;6.640;2022-08-01T11:07:53;10.45;;;1.33;;
51949;SDS011;37974;53.218;6.640;2022-08-01T11:10:24;7.60;;;1.30;;
51949;SDS011;37974;53.218;6.640;2022-08-01T11:12:51;11.23;;;1.15;;
51949;SDS011;37974;53.218;6.640;2022-08-01T11:15:18;10.98;;;1.65;;
51949;SDS011;37974;53.218;6.640;2022-08-01T11:17:52;10.40;;;1.30;;
51949;SDS011;37974;53.218;6.640;2022-08-01T11:20:20;8.65;;;1.33;;
51949;SDS011;37974;53.218;6.640;2022-08-01T11:30:42;8.38;;;1.25;;
51949;SDS011;37974;53.218;6.640;2022-08-01T11:33:10;6.68;;;1.10;;
51949;SDS011;37974;53.218;6.640;2022-08-01T11:35:38;6.93;;;1.00;;
51949;SDS011;37974;53.218;6.640;2022-08-01T11:38:36;12.65;;;1.00;;
51949;SDS011;37974;53.218;6.640;2022-08-01T11:41:11;6.32;;;1.10;;
51949;SDS011;37974;53.218;6.640;2022-08-01T11:43:58;10.75;;;1.20;;
51949;SDS011;37974;53.218;6.640;2022-08-01T11:52:07;9.43;;;1.40;;
51949;SDS011;37974;53.218;6.640;2022-08-01T11:54:43;9.98;;;1.40;;
51949;SDS011;37974;53.218;6.640;2022-08-01T11:57:11;6.18;;;1.08;;
51949;SDS011;37974;53.218;6.640;2022-08-01T11:59:41;9.77;;;1.00;;
51949;SDS011;37974;53.218;6.640;2022-08-01T12:02:15;12.25;;;1.92;;
51949;SDS011;37974;53.218;6.640;2022-08-01T12:04:44;13.88;;;1.40;;
51949;SDS011;37974;53.218;6.640;2022-08-01T12:07:12;10.07;;;1.50;;
51949;SDS011;37974;53.218;6.640;2022-08-01T12:09:39;8.70;;;1.17;;
51949;SDS011;37974;53.218;6.640;2022-08-01T12:12:05;6.47;;;1.13;;
51949;SDS011;37974;53.218;6.640;2022-08-01T12:14:31;7.50;;;0.95;;
51949;SDS011;37974;53.218;6.640;2022-08-01T12:16:57;7.20;;;1.38;;
51949;SDS011;37974;53.218;6.640;2022-08-01T12:19:23;9.98;;;1.30;;
51949;SDS011;37974;53.218;6.640;2022-08-01T12:22:12;8.45;;;1.17;;
51949;SDS011;37974;53.218;6.640;2022-08-01T12:24:39;6.38;;;0.98;;
51949;SDS011;37974;53.218;6.640;2022-08-01T12:27:07;6.95;;;1.02;;
51949;SDS011;37974;53.218;6.640;2022-08-01T12:29:36;10.65;;;1.40;;
51949;SDS011;37974;53.218;6.640;2022-08-01T12:32:10;8.73;;;1.13;;
51949;SDS011;37974;53.218;6.640;2022-08-01T12:34:51;9.32;;;1.20;;
51949;SDS011;37974;53.218;6.640;2022-08-01T12:37:17;8.75;;;1.30;;
51949;SDS011;37974;53.218;6.640;2022-08-01T12:39:43;9.13;;;1.27;;
51949;SDS011;37974;53.218;6.640;2022-08-01T12:42:12;5.63;;;0.93;;
51949;SDS011;37974;53.218;6.640;2022-08-01T12:44:38;11.70;;;1.27;;
51949;SDS011;37974;53.218;6.640;2022-08-01T12:47:05;9.27;;;0.80;;
51949;SDS011;37974;53.218;6.640;2022-08-01T12:49:32;6.93;;;1.20;;
51949;SDS011;37974;53.218;6.640;2022-08-01T12:52:00;6.88;;;1.33;;
51949;SDS011;37974;53.218;6.640;2022-08-01T12:54:26;12.27;;;1.42;;
51949;SDS011;37974;53.218;6.640;2022-08-01T12:56:52;9.73;;;1.25;;
51949;SDS011;37974;53.218;6.640;2022-08-01T12:59:19;10.85;;;1.50;;
51949;SDS011;37974;53.218;6.640;2022-08-01T13:01:47;5.78;;;1.00;;
51949;SDS011;37974;53.218;6.640;2022-08-01T13:04:13;8.95;;;1.30;;
51949;SDS011;37974;53.218;6.640;2022-08-01T13:06:39;8.88;;;1.33;;
51949;SDS011;37974;53.218;6.640;2022-08-01T13:09:05;13.35;;;1.60;;
51949;SDS011;37974;53.218;6.640;2022-08-01T13:11:31;9.82;;;1.38;;
51949;SDS011;37974;53.218;6.640;2022-08-01T13:13:57;8.35;;;1.27;;
51949;SDS011;37974;53.218;6.640;2022-08-01T13:16:24;11.05;;;1.63;;
51949;SDS011;37974;53.218;6.640;2022-08-01T13:18:52;7.05;;;1.35;;
51949;SDS011;37974;53.218;6.640;2022-08-01T13:21:24;4.90;;;1.02;;
51949;SDS011;37974;53.218;6.640;2022-08-01T13:24:00;8.27;;;1.25;;
51949;SDS011;37974;53.218;6.640;2022-08-01T13:26:48;11.20;;;1.48;;
51949;SDS011;37974;53.218;6.640;2022-08-01T13:31:57;9.05;;;1.30;;
51949;SDS011;37974;53.218;6.640;2022-08-01T13:34:31;9.13;;;1.38;;
51949;SDS011;37974;53.218;6.640;2022-08-01T13:36:58;11.57;;;1.85;;
51949;SDS011;37974;53.218;6.640;2022-08-01T13:39:26;10.85;;;1.60;;
51949;SDS011;37974;53.218;6.640;2022-08-01T13:42:05;10.15;;;1.55;;
51949;SDS011;37974;53.218;6.640;2022-08-01T13:44:32;11.38;;;1.38;;
51949;SDS011;37974;53.218;6.640;2022-08-01T13:46:58;11.07;;;1.60;;
51949;SDS011;37974;53.218;6.640;2022-08-01T13:49:24;6.97;;;1.08;;
51949;SDS011;37974;53.218;6.640;2022-08-01T13:51:49;10.77;;;1.30;;
51949;SDS011;37974;53.218;6.640;2022-08-01T13:54:15;7.80;;;1.20;;
51949;SDS011;37974;53.218;6.640;2022-08-01T13:56:41;8.55;;;1.00;;
51949;SDS011;37974;53.218;6.640;2022-08-01T13:59:07;7.60;;;1.08;;
51949;SDS011;37974;53.218;6.640;2022-08-01T14:01:34;10.25;;;1.40;;
51949;SDS011;37974;53.218;6.640;2022-08-01T14:04:01;6.60;;;1.33;;
51949;SDS011;37974;53.218;6.640;2022-08-01T14:06:27;9.77;;;1.30;;
51949;SDS011;37974;53.218;6.640;2022-08-01T14:08:53;11.23;;;1.20;;
51949;SDS011;37974;53.218;6.640;2022-08-01T14:11:19;9.75;;;1.17;;
51949;SDS011;37974;53.218;6.640;2022-08-01T14:13:45;8.90;;;1.17;;
51949;SDS011;37974;53.218;6.640;2022-08-01T14:16:11;8.93;;;1.05;;
51949;SDS011;37974;53.218;6.640;2022-08-01T14:18:36;14.13;;;1.52;;
51949;SDS011;37974;53.218;6.640;2022-08-01T14:21:02;6.55;;;1.00;;
51949;SDS011;37974;53.218;6.640;2022-08-01T14:23:28;10.10;;;1.42;;
51949;SDS011;37974;53.218;6.640;2022-08-01T14:25:54;7.72;;;1.30;;
51949;SDS011;37974;53.218;6.640;2022-08-01T14:28:19;8.50;;;1.38;;
51949;SDS011;37974;53.218;6.640;2022-08-01T14:30:46;13.02;;;1.65;;
51949;SDS011;37974;53.218;6.640;2022-08-01T14:33:12;8.00;;;1.27;;
51949;SDS011;37974;53.218;6.640;2022-08-01T14:35:39;8.30;;;1.38;;
51949;SDS011;37974;53.218;6.640;2022-08-01T14:38:05;15.75;;;1.70;;
51949;SDS011;37974;53.218;6.640;2022-08-01T14:40:31;7.20;;;1.05;;
51949;SDS011;37974;53.218;6.640;2022-08-01T14:42:56;8.82;;;1.42;;
51949;SDS011;37974;53.218;6.640;2022-08-01T14:45:22;10.73;;;1.63;;
51949;SDS011;37974;53.218;6.640;2022-08-01T14:47:48;6.43;;;1.00;;
51949;SDS011;37974;53.218;6.640;2022-08-01T14:50:14;8.85;;;1.27;;
51949;SDS011;37974;53.218;6.640;2022-08-01T14:52:41;7.95;;;1.48;;
51949;SDS011;37974;53.218;6.640;2022-08-01T14:55:08;10.45;;;1.15;;
51949;SDS011;37974;53.218;6.640;2022-08-01T14:57:35;10.00;;;1.30;;
51949;SDS011;37974;53.218;6.640;2022-08-01T15:00:03;9.60;;;1.38;;
51949;SDS011;37974;53.218;6.640;2022-08-01T15:02:31;8.68;;;1.30;;
51949;SDS011;37974;53.218;6.640;2022-08-01T15:04:56;10.48;;;1.27;;
51949;SDS011;37974;53.218;6.640;2022-08-01T15:07:22;12.48;;;2.00;;
51949;SDS011;37974;53.218;6.640;2022-08-01T15:09:48;7.40;;;1.25;;